createdAt,value
2023-06-19T00:00:24.164Z,47.25
2023-06-19T00:03:08.211Z,47.08
2023-06-19T00:05:40.797Z,47.59
2023-06-19T00:08:24.365Z,47.48
2023-06-19T00:10:57.327Z,47.60
2023-06-19T00:13:39.688Z,47.56
2023-06-19T00:16:12.508Z,47.70
2023-06-19T00:18:58.325Z,47.43
2023-06-19T00:21:43.465Z,47.06
2023-06-19T00:24:16.142Z,47.70
2023-06-19T00:27:02.030Z,47.54
2023-06-19T00:29:35.892Z,47.94
2023-06-19T00:32:08.863Z,48.19
2023-06-19T00:34:43.090Z,48.17
2023-06-19T00:37:27.266Z,47.72
2023-06-19T00:40:00.050Z,48.65
2023-06-19T00:42:44.465Z,48.27
2023-06-19T00:45:16.957Z,48.23
2023-06-19T00:48:01.967Z,47.95
2023-06-19T00:50:34.928Z,48.31
2023-06-19T00:53:17.270Z,48.71
2023-06-19T00:55:52.572Z,48.71
2023-06-19T00:58:36.434Z,48.61
2023-06-19T01:01:10.000Z,48.77
2023-06-19T01:03:43.168Z,48.57
2023-06-19T01:06:28.635Z,48.30
2023-06-19T01:09:07.292Z,48.29
2023-06-19T01:11:55.502Z,48.01
2023-06-19T01:14:36.748Z,48.20
2023-06-19T01:17:22.948Z,47.89
2023-06-19T01:19:56.304Z,48.24
2023-06-19T01:22:40.267Z,48.12
2023-06-19T01:25:16.171Z,48.29
2023-06-19T01:27:58.400Z,48.25
2023-06-19T01:30:31.425Z,48.59
2023-06-19T01:33:16.477Z,48.48
2023-06-19T01:35:51.438Z,48.48
2023-06-19T01:38:36.980Z,48.67
2023-06-19T01:41:10.845Z,48.85
2023-06-19T01:43:43.397Z,47.04
2023-06-19T01:46:26.439Z,48.31
2023-06-19T01:49:00.561Z,48.60
2023-06-19T01:51:43.207Z,48.44
2023-06-19T01:54:16.103Z,48.80
2023-06-19T01:56:59.421Z,49.14
2023-06-19T01:59:32.294Z,49.14
2023-06-19T02:02:14.944Z,48.56
2023-06-19T02:04:47.623Z,48.42
2023-06-19T02:07:31.473Z,48.29
2023-06-19T02:10:04.192Z,48.17
2023-06-19T02:12:46.555Z,47.99
2023-06-19T02:15:19.642Z,48.24
2023-06-19T02:18:03.873Z,48.21
2023-06-19T02:20:36.473Z,47.88
2023-06-19T02:23:21.172Z,47.63
2023-06-19T02:25:53.767Z,47.47
2023-06-19T02:28:37.638Z,47.32
2023-06-19T02:31:10.870Z,47.25
2023-06-19T02:33:54.691Z,47.20
2023-06-19T02:36:27.336Z,46.91
2023-06-19T02:39:12.198Z,46.91
2023-06-19T02:41:46.491Z,46.88
2023-06-19T02:44:30.529Z,46.77
2023-06-19T02:47:13.466Z,46.57
2023-06-19T02:49:46.245Z,46.46
2023-06-19T02:52:30.973Z,46.28
2023-06-19T02:55:05.220Z,46.09
2023-06-19T02:57:48.870Z,46.05
2023-06-19T03:00:21.582Z,45.98
2023-06-19T03:03:04.263Z,45.87
2023-06-19T03:05:48.563Z,45.55
2023-06-19T03:08:35.080Z,45.75
2023-06-19T03:11:19.167Z,45.34
2023-06-19T03:13:56.444Z,44.93
2023-06-19T03:16:29.238Z,45.01
2023-06-19T03:19:11.433Z,45.11
2023-06-19T03:21:44.040Z,44.86
2023-06-19T03:24:29.059Z,44.58
2023-06-19T03:27:13.254Z,44.58
2023-06-19T03:29:57.272Z,44.67
2023-06-19T03:32:32.619Z,44.51
2023-06-19T03:35:16.092Z,44.02
2023-06-19T03:37:49.296Z,43.89
2023-06-19T03:40:33.383Z,43.92
2023-06-19T03:43:07.207Z,43.72
2023-06-19T03:45:52.422Z,42.93
2023-06-19T03:48:26.226Z,43.44
2023-06-19T03:51:09.946Z,43.35
2023-06-19T03:53:43.662Z,43.54
2023-06-19T03:56:25.867Z,43.26
2023-06-19T03:58:58.543Z,43.39
2023-06-19T04:01:41.976Z,43.14
2023-06-19T04:04:15.341Z,43.05
2023-06-19T04:07:00.465Z,42.70
2023-06-19T04:09:33.957Z,42.98
2023-06-19T04:12:17.638Z,42.82
2023-06-19T04:14:50.684Z,42.60
2023-06-19T04:17:35.274Z,42.68
2023-06-19T04:20:18.651Z,42.41
2023-06-19T04:23:03.320Z,42.19
2023-06-19T04:25:36.123Z,41.93
2023-06-19T04:28:18.465Z,41.77
2023-06-19T04:30:51.558Z,41.66
2023-06-19T04:33:36.917Z,41.68
2023-06-19T04:36:11.195Z,41.45
2023-06-19T04:38:56.377Z,41.20
2023-06-19T04:41:30.902Z,41.11
2023-06-19T04:44:15.254Z,40.54
2023-06-19T04:47:03.363Z,40.47
2023-06-19T04:49:47.126Z,40.88
2023-06-19T04:52:34.608Z,40.61
2023-06-19T04:55:18.941Z,40.59
2023-06-19T04:57:52.379Z,40.00
2023-06-19T05:00:34.686Z,39.52
2023-06-19T05:03:07.724Z,39.23
2023-06-19T05:05:50.504Z,39.02
2023-06-19T05:08:24.199Z,38.91
2023-06-19T05:11:14.622Z,38.46
2023-06-19T05:13:47.877Z,38.10
2023-06-19T05:16:30.606Z,38.57
2023-06-19T05:19:04.578Z,38.33
2023-06-19T05:21:49.886Z,37.75
2023-06-19T05:24:23.815Z,36.99
2023-06-19T05:27:06.850Z,37.15
2023-06-19T05:29:39.913Z,37.11
2023-06-19T05:32:22.963Z,36.45
2023-06-19T05:34:55.469Z,35.83
2023-06-19T05:37:39.542Z,35.43
2023-06-19T05:40:13.325Z,35.51
2023-06-19T05:42:57.988Z,35.39
2023-06-19T05:45:30.794Z,35.67
2023-06-19T05:48:17.004Z,34.73
2023-06-19T05:50:49.787Z,35.05
2023-06-19T05:53:33.212Z,34.94
2023-06-19T05:56:07.637Z,33.70
2023-06-19T05:58:52.335Z,34.30
2023-06-19T06:01:26.179Z,35.07
2023-06-19T06:04:11.257Z,34.86
2023-06-19T06:06:44.583Z,33.09
2023-06-19T06:09:28.280Z,33.75
2023-06-19T06:12:01.653Z,33.01
2023-06-19T06:14:45.581Z,32.94
2023-06-19T06:17:18.529Z,32.60
2023-06-19T06:20:02.639Z,32.91
2023-06-19T06:22:35.416Z,32.52
2023-06-19T06:25:18.027Z,32.56
2023-06-19T06:27:51.716Z,32.54
2023-06-19T06:30:36.779Z,32.69
2023-06-19T06:33:09.546Z,32.59
2023-06-19T06:35:42.643Z,32.15
2023-06-19T06:38:27.386Z,32.52
2023-06-19T06:41:00.590Z,32.51
2023-06-19T06:43:46.462Z,32.73
2023-06-19T06:46:19.672Z,32.39
2023-06-19T06:49:04.766Z,32.41
2023-06-19T06:51:47.851Z,32.47
2023-06-19T06:54:31.518Z,32.22
2023-06-19T06:57:06.599Z,32.05
2023-06-19T06:59:50.817Z,32.05
2023-06-19T07:02:23.924Z,32.06
2023-06-19T07:05:08.841Z,32.33
2023-06-19T07:07:41.723Z,31.93
2023-06-19T07:10:26.631Z,31.98
2023-06-19T07:13:10.856Z,31.98
2023-06-19T07:15:56.709Z,31.70
2023-06-19T07:18:30.503Z,31.82
2023-06-19T07:21:14.741Z,31.87
2023-06-19T07:23:57.856Z,31.69
2023-06-19T07:26:30.601Z,31.95
2023-06-19T07:29:15.130Z,32.00
2023-06-19T07:31:47.765Z,31.92
2023-06-19T07:34:30.628Z,31.79
2023-06-19T07:37:03.447Z,31.05
2023-06-19T07:39:47.081Z,31.40
2023-06-19T07:42:21.191Z,30.97
2023-06-19T07:45:06.392Z,30.37
2023-06-19T07:47:58.119Z,30.24
2023-06-19T07:50:31.041Z,30.47
2023-06-19T07:53:13.660Z,30.95
2023-06-19T07:55:58.661Z,31.26
2023-06-19T07:58:31.993Z,32.67
2023-06-19T08:01:16.107Z,32.70
2023-06-19T08:03:48.886Z,28.85
2023-06-19T08:06:32.837Z,30.49
2023-06-19T08:09:06.022Z,29.91
2023-06-19T08:11:49.160Z,29.79
2023-06-19T08:14:33.415Z,29.90
2023-06-19T08:17:16.692Z,30.29
2023-06-19T08:19:59.719Z,30.14
2023-06-19T08:22:44.953Z,29.85
2023-06-19T08:25:18.119Z,28.69
2023-06-19T08:28:00.269Z,29.21
2023-06-19T08:30:33.085Z,28.41
2023-06-19T08:33:18.699Z,29.18
2023-06-19T08:35:51.480Z,28.64
2023-06-19T08:38:35.120Z,29.17
2023-06-19T08:41:21.736Z,29.04
2023-06-19T08:44:05.878Z,28.90
2023-06-19T08:46:42.570Z,28.49
2023-06-19T08:49:27.316Z,28.82
2023-06-19T08:52:00.642Z,27.69
2023-06-19T08:54:46.315Z,27.10
2023-06-19T08:57:36.964Z,26.70
2023-06-19T09:00:12.199Z,25.50
2023-06-19T09:03:08.754Z,26.59
2023-06-19T09:05:31.357Z,24.88
2023-06-19T09:08:17.329Z,26.22
2023-06-19T09:11:03.128Z,26.18
2023-06-19T09:13:47.948Z,25.98
2023-06-19T09:16:20.539Z,24.39
2023-06-19T09:19:04.605Z,24.63
2023-06-19T09:21:47.214Z,23.99
2023-06-19T09:24:21.151Z,23.07
2023-06-19T09:27:18.110Z,24.07
2023-06-19T09:30:04.042Z,25.14
2023-06-19T09:32:38.915Z,25.12
2023-06-19T09:35:23.263Z,25.83
2023-06-19T09:37:58.137Z,25.36
2023-06-19T09:40:43.945Z,27.99
2023-06-19T09:43:20.523Z,27.18
2023-06-19T09:46:06.200Z,26.07
2023-06-19T09:48:47.461Z,25.33
2023-06-19T09:51:23.593Z,25.32
2023-06-19T09:54:02.227Z,24.97
2023-06-19T09:56:49.566Z,25.42
2023-06-19T09:59:35.288Z,25.55
2023-06-19T10:02:08.861Z,24.93
2023-06-19T10:04:56.745Z,28.05
2023-06-19T10:07:44.153Z,25.96
2023-06-19T10:10:34.039Z,25.84
2023-06-19T10:13:18.584Z,25.30
2023-06-19T10:15:51.184Z,24.23
2023-06-19T10:18:37.360Z,24.54
2023-06-19T10:21:24.057Z,25.00
2023-06-19T10:23:58.942Z,25.83
2023-06-19T10:26:41.718Z,25.18
2023-06-19T10:29:19.220Z,25.47
2023-06-19T10:32:03.694Z,25.68
2023-06-19T10:34:51.597Z,25.54
2023-06-19T10:37:35.364Z,24.98
2023-06-19T10:40:20.832Z,25.48
2023-06-19T10:43:06.657Z,25.47
2023-06-19T10:45:52.371Z,25.66
2023-06-19T10:48:26.615Z,25.54
2023-06-19T10:51:12.887Z,25.42
2023-06-19T10:53:45.571Z,25.52
2023-06-19T10:56:29.595Z,25.36
2023-06-19T10:59:08.377Z,25.15
2023-06-19T11:01:52.474Z,25.17
2023-06-19T11:04:26.577Z,25.49
2023-06-19T11:07:10.793Z,25.12
2023-06-19T11:09:45.108Z,24.16
2023-06-19T11:12:27.379Z,24.22
2023-06-19T11:15:00.058Z,22.36
2023-06-19T11:17:44.058Z,21.97
2023-06-19T11:20:16.864Z,19.15
2023-06-19T11:23:04.424Z,18.81
2023-06-19T11:25:41.539Z,17.91
2023-06-19T11:28:25.382Z,17.43
2023-06-19T11:31:06.262Z,14.02
2023-06-19T11:34:03.114Z,14.67
2023-06-19T11:36:37.532Z,12.38
2023-06-19T11:39:21.632Z,12.86
2023-06-19T11:42:05.908Z,11.92
2023-06-19T11:44:58.700Z,11.23
2023-06-19T11:47:33.884Z,9.52
2023-06-19T11:50:18.258Z,10.31
2023-06-19T11:52:56.113Z,8.44
2023-06-19T11:55:40.051Z,9.73
2023-06-19T11:58:12.858Z,8.85
2023-06-19T12:00:46.376Z,8.76
2023-06-19T12:03:39.672Z,9.50
2023-06-19T12:06:21.414Z,9.37
2023-06-19T12:09:05.493Z,9.70
2023-06-19T12:11:47.937Z,10.08
2023-06-19T12:14:20.959Z,9.95
2023-06-19T12:17:06.889Z,10.18
2023-06-19T12:19:50.656Z,10.15
2023-06-19T12:22:23.391Z,9.05
2023-06-19T12:25:06.240Z,8.82
2023-06-19T12:27:40.301Z,7.50
2023-06-19T12:30:22.839Z,7.89
2023-06-19T12:32:55.785Z,6.85
2023-06-19T12:35:43.382Z,7.10
2023-06-19T12:38:27.880Z,6.75
2023-06-19T12:41:00.728Z,5.78
2023-06-19T12:43:34.084Z,5.37
2023-06-19T12:46:07.672Z,5.50
2023-06-19T12:48:57.939Z,6.12
2023-06-19T12:51:40.566Z,5.66
2023-06-19T12:54:23.487Z,5.33
2023-06-19T12:56:56.381Z,5.00
2023-06-19T12:59:46.892Z,5.24
2023-06-19T13:02:19.849Z,4.58
2023-06-19T13:05:04.594Z,4.55
2023-06-19T13:07:37.084Z,4.81
2023-06-19T13:10:21.031Z,4.98
2023-06-19T13:12:54.331Z,4.65
2023-06-19T13:15:39.496Z,4.57
2023-06-19T13:18:12.267Z,4.56
2023-06-19T13:20:56.363Z,4.67
2023-06-19T13:23:29.027Z,4.59
2023-06-19T13:26:13.249Z,4.81
2023-06-19T13:28:57.523Z,4.55
2023-06-19T13:31:30.284Z,4.83
2023-06-19T13:34:13.125Z,4.79
2023-06-19T13:36:45.869Z,5.08
2023-06-19T13:39:28.424Z,5.14
2023-06-19T13:42:12.105Z,5.23
2023-06-19T13:44:45.166Z,5.13
2023-06-19T13:47:29.919Z,5.25
2023-06-19T13:50:02.823Z,5.56
2023-06-19T13:52:45.855Z,5.68
2023-06-19T13:55:20.176Z,5.81
2023-06-19T13:58:02.651Z,5.92
2023-06-19T14:00:36.792Z,5.92
2023-06-19T14:03:09.986Z,6.15
2023-06-19T14:05:53.409Z,5.98
2023-06-19T14:08:25.908Z,6.04
2023-06-19T14:10:59.109Z,6.11
2023-06-19T14:13:41.497Z,5.77
2023-06-19T14:16:24.491Z,5.52
2023-06-19T14:19:07.028Z,5.46
2023-06-19T14:21:40.024Z,5.53
2023-06-19T14:24:25.798Z,5.70
2023-06-19T14:27:10.041Z,5.96
2023-06-19T14:29:42.715Z,6.01
2023-06-19T14:32:26.760Z,5.84
2023-06-19T14:34:59.021Z,5.95
2023-06-19T14:37:33.429Z,6.11
2023-06-19T14:40:16.936Z,5.76
2023-06-19T14:43:00.813Z,5.83
2023-06-19T14:45:35.423Z,5.97
2023-06-19T14:48:20.372Z,6.07
2023-06-19T14:50:52.926Z,6.41
2023-06-19T14:53:37.016Z,6.29
2023-06-19T14:56:10.115Z,6.26
2023-06-19T14:58:54.634Z,6.04
2023-06-19T15:01:28.231Z,6.18
2023-06-19T15:04:10.890Z,5.97
2023-06-19T15:06:44.101Z,5.99
2023-06-19T15:09:16.866Z,5.97
2023-06-19T15:12:01.693Z,6.23
2023-06-19T15:14:36.669Z,6.42
2023-06-19T15:17:21.512Z,6.31
2023-06-19T15:20:06.038Z,6.12
2023-06-19T15:22:38.689Z,6.24
2023-06-19T15:25:21.102Z,6.25
2023-06-19T15:27:54.055Z,6.27
2023-06-19T15:30:39.147Z,6.21
2023-06-19T15:33:11.687Z,6.24
2023-06-19T15:35:56.091Z,6.34
2023-06-19T15:38:28.618Z,6.65
2023-06-19T15:41:11.897Z,7.19
2023-06-19T15:43:54.252Z,7.59
2023-06-19T15:46:26.966Z,9.43
2023-06-19T15:49:11.505Z,10.45
2023-06-19T15:51:52.949Z,11.91
2023-06-19T15:54:26.184Z,13.97
2023-06-19T15:57:12.313Z,14.04
2023-06-19T15:59:46.668Z,15.78
2023-06-19T16:02:30.306Z,15.77
2023-06-19T16:05:03.540Z,16.99
2023-06-19T16:07:47.981Z,16.68
2023-06-19T16:10:20.761Z,18.03
2023-06-19T16:13:03.169Z,17.72
2023-06-19T16:15:36.558Z,18.54
2023-06-19T16:18:20.362Z,18.21
2023-06-19T16:21:05.664Z,18.40
2023-06-19T16:23:50.700Z,18.79
2023-06-19T16:26:35.772Z,18.97
2023-06-19T16:29:18.281Z,20.10
2023-06-19T16:32:09.741Z,19.88
2023-06-19T16:34:48.597Z,19.97
2023-06-19T16:37:21.274Z,21.67
2023-06-19T16:40:07.136Z,20.22
2023-06-19T16:42:49.493Z,20.36
2023-06-19T16:45:23.835Z,20.29
2023-06-19T16:48:06.375Z,18.17
2023-06-19T16:50:48.537Z,18.13
2023-06-19T16:53:21.226Z,18.97
2023-06-19T16:56:05.026Z,19.09
2023-06-19T16:58:37.861Z,20.81
2023-06-19T17:01:21.663Z,20.48
2023-06-19T17:03:54.462Z,21.81
2023-06-19T17:06:37.208Z,21.31
2023-06-19T17:09:09.667Z,22.69
2023-06-19T17:11:53.328Z,22.28
2023-06-19T17:14:25.918Z,23.72
2023-06-19T17:17:10.406Z,23.09
2023-06-19T17:19:43.276Z,24.74
2023-06-19T17:22:27.170Z,24.40
2023-06-19T17:24:59.660Z,26.22
2023-06-19T17:27:42.714Z,25.42
2023-06-19T17:30:15.749Z,27.07
2023-06-19T17:32:58.105Z,26.51
2023-06-19T17:35:42.584Z,26.62
2023-06-19T17:38:15.490Z,28.38
2023-06-19T17:40:47.939Z,28.81
2023-06-19T17:43:33.574Z,27.46
2023-06-19T17:46:06.358Z,29.17
2023-06-19T17:48:48.676Z,28.05
2023-06-19T17:51:33.161Z,28.10
2023-06-19T17:54:15.325Z,28.45
2023-06-19T17:56:48.452Z,29.87
2023-06-19T17:59:32.884Z,29.01
2023-06-19T18:02:18.296Z,29.12
2023-06-19T18:04:50.941Z,30.21
2023-06-19T18:07:33.084Z,29.37
2023-06-19T18:10:07.225Z,30.54
2023-06-19T18:12:50.995Z,29.64
2023-06-19T18:15:23.988Z,30.85
2023-06-19T18:18:08.185Z,30.09
2023-06-19T18:20:41.975Z,31.32
2023-06-19T18:23:14.574Z,31.35
2023-06-19T18:25:59.032Z,30.67
2023-06-19T18:28:31.597Z,31.88
2023-06-19T18:31:13.964Z,31.05
2023-06-19T18:33:46.504Z,32.32
2023-06-19T18:36:19.003Z,32.48
2023-06-19T18:38:51.903Z,32.95
2023-06-19T18:41:34.234Z,31.83
2023-06-19T18:44:06.742Z,32.93
2023-06-19T18:46:39.115Z,33.14
2023-06-19T18:49:11.755Z,33.26
2023-06-19T18:51:53.925Z,32.48
2023-06-19T18:54:26.529Z,33.63
2023-06-19T18:57:10.885Z,32.94
2023-06-19T18:59:43.411Z,34.02
2023-06-19T19:02:27.437Z,33.33
2023-06-19T19:05:00.821Z,34.64
2023-06-19T19:07:44.592Z,33.66
2023-06-19T19:10:28.369Z,33.98
2023-06-19T19:13:14.200Z,34.07
2023-06-19T19:15:46.654Z,35.47
2023-06-19T19:18:30.595Z,34.81
2023-06-19T19:21:03.051Z,35.95
2023-06-19T19:23:46.852Z,35.05
2023-06-19T19:26:29.103Z,35.21
2023-06-19T19:29:01.675Z,36.48
2023-06-19T19:31:44.176Z,36.15
2023-06-19T19:34:28.200Z,35.71
2023-06-19T19:37:11.917Z,36.08
2023-06-19T19:39:44.503Z,36.94
2023-06-19T19:42:29.955Z,36.38
2023-06-19T19:45:15.029Z,36.23
2023-06-19T19:48:00.128Z,36.48
2023-06-19T19:50:33.329Z,37.55
2023-06-19T19:53:17.740Z,36.53
2023-06-19T19:56:01.437Z,36.59
2023-06-19T19:58:45.004Z,36.74
2023-06-19T20:01:17.525Z,38.22
2023-06-19T20:04:01.413Z,37.01
2023-06-19T20:06:34.112Z,38.40
2023-06-19T20:09:17.930Z,37.16
2023-06-19T20:12:16.559Z,37.42
2023-06-19T20:14:36.294Z,38.25
2023-06-19T20:17:20.530Z,37.63
2023-06-19T20:19:52.940Z,38.10
2023-06-19T20:22:37.156Z,37.56
2023-06-19T20:25:10.515Z,38.56
2023-06-19T20:28:07.323Z,37.65
2023-06-19T20:30:40.256Z,37.63
2023-06-19T20:33:12.859Z,38.89
2023-06-19T20:35:56.559Z,38.34
2023-06-19T20:38:29.318Z,39.06
2023-06-19T20:41:13.672Z,38.29
2023-06-19T20:43:46.610Z,38.92
2023-06-19T20:46:30.684Z,36.32
2023-06-19T20:49:03.255Z,38.79
2023-06-19T20:51:47.317Z,38.04
2023-06-19T20:54:20.269Z,38.96
2023-06-19T20:56:53.066Z,38.96
2023-06-19T20:59:26.702Z,38.92
2023-06-19T21:02:10.215Z,38.51
2023-06-19T21:04:53.953Z,38.34
2023-06-19T21:07:26.694Z,38.78
2023-06-19T21:10:09.572Z,38.55
2023-06-19T21:12:53.409Z,38.39
2023-06-19T21:15:43.991Z,38.76
2023-06-19T21:18:28.129Z,38.51
2023-06-19T21:21:11.936Z,38.83
2023-06-19T21:23:44.448Z,39.44
2023-06-19T21:26:27.135Z,38.87
2023-06-19T21:29:09.365Z,39.13
2023-06-19T21:31:43.324Z,39.34
2023-06-19T21:34:26.123Z,39.00
2023-06-19T21:37:10.340Z,39.68
2023-06-19T21:39:54.103Z,39.35
2023-06-19T21:42:26.937Z,40.25
2023-06-19T21:45:10.080Z,39.48
2023-06-19T21:47:53.984Z,39.50
2023-06-19T21:50:26.887Z,40.08
2023-06-19T21:53:10.944Z,39.64
2023-06-19T21:55:43.730Z,40.36
2023-06-19T21:58:27.609Z,39.70
2023-06-19T22:01:00.639Z,40.52
2023-06-19T22:03:45.043Z,40.25
2023-06-19T22:06:17.660Z,41.32
2023-06-19T22:09:01.412Z,40.85
2023-06-19T22:11:33.889Z,41.89
2023-06-19T22:14:16.219Z,41.11
2023-06-19T22:16:48.813Z,41.83
2023-06-19T22:19:33.336Z,41.53
2023-06-19T22:22:17.171Z,40.97
2023-06-19T22:24:49.691Z,42.24
2023-06-19T22:27:22.348Z,42.56
2023-06-19T22:29:54.977Z,43.02
2023-06-19T22:32:38.688Z,41.77
2023-06-19T22:35:11.606Z,42.56
2023-06-19T22:37:56.020Z,42.01
2023-06-19T22:40:41.477Z,41.85
2023-06-19T22:43:14.388Z,42.98
2023-06-19T22:45:56.681Z,42.73
2023-06-19T22:48:29.677Z,42.90
2023-06-19T22:51:12.081Z,43.90
2023-06-19T22:53:56.993Z,43.98
2023-06-19T22:56:29.917Z,44.19
2023-06-19T22:59:14.539Z,43.48
2023-06-19T23:01:47.167Z,44.73
2023-06-19T23:04:32.721Z,44.70
2023-06-19T23:07:05.497Z,47.13
2023-06-19T23:09:47.698Z,45.04
2023-06-19T23:12:21.497Z,45.89
2023-06-19T23:15:04.073Z,45.66
2023-06-19T23:17:48.064Z,45.77
2023-06-19T23:20:30.831Z,46.08
2023-06-19T23:23:05.129Z,47.03
2023-06-19T23:25:50.694Z,46.13
2023-06-19T23:28:23.048Z,47.14
2023-06-19T23:31:05.490Z,46.36
2023-06-19T23:33:37.976Z,45.92
2023-06-19T23:36:30.171Z,45.65
2023-06-19T23:39:02.988Z,47.52
2023-06-19T23:42:04.674Z,46.24
2023-06-19T23:44:37.962Z,47.14
2023-06-19T23:47:22.356Z,46.77
2023-06-19T23:50:04.593Z,47.78
2023-06-19T23:52:43.481Z,47.50
2023-06-19T23:55:22.384Z,47.34
2023-06-19T23:57:55.433Z,48.27
